Time;durP1;ratioP1;P1;durP2;ratioP2;P2;SDS_P1;SDS_P2;PMS_P1;PMS_P2;Temp;Humidity;BMP_temperature;BMP_pressure;BME280_temperature;BME280_humidity;BME280_pressure;Samples;Min_cycle;Max_cycle;Signal;HPM_P1;HPM_P2
2022/12/10 00:04:19;;;;;;;2.60;1.60;;;;;;;;;;20775765;28;20222;-63
2022/12/10 00:14:21;;;;;;;3.20;1.80;;;;;;;;;;20789488;28;20589;-63
2022/12/10 00:24:23;;;;;;;3.77;2.53;;;;;;;;;;20796759;28;20685;-63
2022/12/10 00:34:24;;;;;;;3.17;1.97;;;;;;;;;;20796323;28;20280;-63
2022/12/10 00:44:27;;;;;;;2.73;2.03;;;;;;;;;;20810893;28;20234;-64
2022/12/10 00:54:29;;;;;;;2.97;2.23;;;;;;;;;;20793207;28;20207;-63
2022/12/10 01:04:30;;;;;;;2.53;1.70;;;;;;;;;;20793069;28;20292;-63
2022/12/10 01:14:33;;;;;;;2.37;1.73;;;;;;;;;;20793129;28;20214;-63
2022/12/10 01:24:35;;;;;;;2.67;1.83;;;;;;;;;;20792362;28;20219;-63
2022/12/10 01:34:37;;;;;;;4.10;2.50;;;;;;;;;;20808046;28;20222;-63
2022/12/10 01:44:42;;;;;;;3.30;1.87;;;;;;;;;;20806219;28;20296;-63
2022/12/10 01:54:45;;;;;;;3.17;2.20;;;;;;;;;;20805815;28;20222;-63
2022/12/10 02:05:06;;;;;;;2.43;1.97;;;;;;;;;;20789078;28;20214;-63
2022/12/10 02:15:16;;;;;;;3.27;2.73;;;;;;;;;;20804287;28;20245;-63
2022/12/10 02:25:28;;;;;;;3.73;2.13;;;2.00;99.90;;;;;;20815107;28;20222;-63
2022/12/10 02:35:34;;;;;;;3.40;2.07;;;2.00;99.90;;;;;;20778251;28;20218;-63
2022/12/10 02:45:36;;;;;;;3.97;2.70;;;;;;;;;;20778521;28;20264;-63
2022/12/10 02:56:05;;;;;;;3.03;1.90;;;2.00;99.90;;;;;;20786997;28;20284;-63
2022/12/10 03:06:17;;;;;;;3.27;2.03;;;;;;;;;;20802534;28;20268;-63
2022/12/10 03:16:19;;;;;;;3.20;2.40;;;;;;;;;;20786675;28;20291;-63
2022/12/10 03:26:21;;;;;;;3.40;2.10;;;;;;;;;;20800147;28;20211;-63
2022/12/10 03:36:25;;;;;;;2.97;2.20;;;;;;;;;;20860211;22;20218;-68
2022/12/10 03:46:30;;;;;;;3.87;2.60;;;1.90;99.90;;;;;;20912301;28;20209;-69
2022/12/10 03:56:32;;;;;;;2.77;2.17;;;;;;;;;;20911470;28;20572;-69
2022/12/10 04:06:34;;;;;;;3.13;2.43;;;;;;;;;;20910777;28;20213;-68
2022/12/10 04:16:36;;;;;;;2.97;2.33;;;1.60;99.90;;;;;;20909738;28;20668;-69
2022/12/10 04:26:53;;;;;;;2.80;2.20;;;;;;;;;;20909689;28;20202;-68
2022/12/10 04:36:55;;;;;;;3.37;2.23;;;;;;;;;;20908576;28;20217;-68
2022/12/10 04:46:57;;;;;;;3.13;2.40;;;;;;;;;;20906777;28;20563;-69
2022/12/10 04:57:00;;;;;;;2.53;2.00;;;;;;;;;;20898719;28;20598;-69
2022/12/10 05:07:01;;;;;;;2.97;1.80;;;;;;;;;;20905831;28;20202;-68
2022/12/10 05:17:03;;;;;;;3.97;1.90;;;;;;;;;;20887597;28;20244;-68
2022/12/10 05:27:05;;;;;;;2.27;1.67;;;1.60;99.90;;;;;;20886626;28;20198;-68
2022/12/10 05:37:06;;;;;;;3.83;2.30;;;;;;;;;;20898197;28;20214;-68
2022/12/10 05:47:08;;;;;;;3.10;1.47;;;;;;;;;;20901925;28;20229;-69
2022/12/10 05:57:10;;;;;;;2.17;1.77;;;;;;;;;;20902499;28;20213;-69
2022/12/10 06:07:12;;;;;;;2.00;1.50;;;;;;;;;;20900660;28;20235;-69
2022/12/10 06:17:13;;;;;;;2.87;1.93;;;;;;;;;;20902033;28;20271;-68
2022/12/10 06:27:16;;;;;;;3.17;1.87;;;;;;;;;;20899976;28;20279;-68
2022/12/10 06:37:18;;;;;;;2.97;1.63;;;;;;;;;;20900041;28;20218;-68
2022/12/10 06:47:19;;;;;;;2.63;1.63;;;;;;;;;;20899265;28;20264;-68
2022/12/10 06:57:21;;;;;;;2.03;1.60;;;;;;;;;;20906871;28;20221;-69
2022/12/10 07:07:23;;;;;;;3.20;2.10;;;;;;;;;;20911097;28;20202;-68
2022/12/10 07:17:25;;;;;;;2.57;1.83;;;;;;;;;;20904216;28;20221;-68
2022/12/10 07:27:27;;;;;;;1.53;1.20;;;;;;;;;;20914105;28;20214;-69
2022/12/10 07:37:29;;;;;;;2.97;2.30;;;;;;;;;;20912241;28;20299;-68
2022/12/10 07:47:31;;;;;;;2.53;1.83;;;;;;;;;;20903338;28;20762;-68
2022/12/10 07:57:32;;;;;;;3.03;1.93;;;;;;;;;;20908910;28;20295;-68
2022/12/10 08:07:34;;;;;;;1.70;1.33;;;;;;;;;;20907027;28;20389;-68
2022/12/10 08:17:36;;;;;;;2.40;1.43;;;;;;;;;;20909433;28;20202;-69
2022/12/10 08:27:37;;;;;;;1.63;1.53;;;;;;;;;;20908149;28;20272;-68
2022/12/10 08:37:41;;;;;;;1.77;1.40;;;;;;;;;;20908438;28;20452;-68
2022/12/10 08:47:43;;;;;;;1.70;1.37;;;;;;;;;;20885565;28;20287;-67
2022/12/10 08:57:45;;;;;;;1.80;1.30;;;;;;;;;;20879518;28;20279;-68
2022/12/10 09:07:46;;;;;;;2.33;1.40;;;;;;;;;;20883912;28;20679;-68
2022/12/10 09:17:48;;;;;;;2.87;2.17;;;;;;;;;;20882256;28;20213;-68
2022/12/10 09:27:50;;;;;;;1.97;1.23;;;;;;;;;;20890747;28;20237;-68
2022/12/10 09:37:52;;;;;;;3.60;2.17;;;;;;;;;;20889454;22;20222;-63
2022/12/10 09:47:59;;;;;;;1.40;0.93;;;;;;;;;;20772031;28;20280;-63
2022/12/10 09:58:02;;;;;;;2.63;1.80;;;;;;;;;;20784555;28;20608;-63
2022/12/10 10:08:32;;;;;;;2.00;1.40;;;;;;;;;;20810901;28;20274;-63
2022/12/10 10:18:40;;;;;;;1.53;1.40;;;2.70;99.90;;;;;;20790702;28;20304;-63
2022/12/10 10:28:45;;;;;;;2.07;1.27;;;2.50;99.90;;;;;;20795969;28;20218;-63
2022/12/10 10:38:50;;;;;;;2.23;1.30;;;;;;;;;;20785805;28;20268;-63
2022/12/10 10:48:52;;;;;;;1.87;1.03;;;;;;;;;;20773606;28;20288;-63
2022/12/10 10:58:58;;;;;;;3.80;2.10;;;2.50;99.90;;;;;;20780942;28;20227;-63
2022/12/10 11:09:00;;;;;;;1.47;1.03;;;;;;;;;;20731419;28;20227;-63
2022/12/10 11:19:04;;;;;;;1.13;1.00;;;2.70;99.90;;;;;;20771923;28;20778;-63
2022/12/10 11:29:24;;;;;;;2.30;1.63;;;2.70;99.90;;;;;;20777010;28;20219;-62
2022/12/10 11:39:36;;;;;;;1.63;1.37;;;;;;;;;;20818249;28;20234;-63
2022/12/10 11:50:06;;;;;;;2.00;1.60;;;;;;;;;;20806486;28;20309;-63
2022/12/10 12:00:27;;;;;;;3.50;1.80;;;2.70;99.90;;;;;;20718215;28;20272;-63
2022/12/10 12:10:45;;;;;;;2.10;1.23;;;;;;;;;;20810984;28;20292;-63
2022/12/10 12:21:07;;;;;;;1.70;1.23;;;;;;;;;;20805155;28;20223;-63
2022/12/10 12:31:13;;;;;;;1.40;1.13;;;2.80;99.90;;;;;;20810902;28;20218;-63
2022/12/10 12:41:17;;;;;;;1.87;1.07;;;;;;;;;;20824103;28;20241;-63
2022/12/10 12:51:33;;;;;;;1.93;1.43;;;;;;;;;;20808863;28;20938;-62
2022/12/10 13:01:53;;;;;;;2.50;1.47;;;2.90;99.90;;;;;;20824402;28;20229;-63
2022/12/10 13:12:27;;;;;;;1.67;1.23;;;2.80;99.90;;;;;;20791189;28;20210;-63
2022/12/10 13:22:38;;;;;;;1.67;1.20;;;;;;;;;;20786306;28;20307;-62
2022/12/10 13:32:41;;;;;;;3.07;1.97;;;;;;;;;;20816351;28;20222;-62
2022/12/10 13:53:17;;;;;;;2.90;1.70;;;2.50;99.90;;;;;;20731016;28;20214;-62
2022/12/10 14:03:30;;;;;;;1.90;1.40;;;2.60;99.90;;;;;;20774951;28;20276;-63
2022/12/10 14:13:43;;;;;;;3.27;2.10;;;;;;;;;;20785083;28;20222;-63
2022/12/10 14:23:49;;;;;;;2.40;1.70;;;;;;;;;;20808797;28;20229;-63
2022/12/10 14:33:52;;;;;;;2.23;1.57;;;2.50;99.90;;;;;;20769992;28;20291;-63
2022/12/10 14:43:54;;;;;;;2.17;1.80;;;;;;;;;;20767357;28;20257;-63
2022/12/10 14:53:56;;;;;;;1.97;1.53;;;;;;;;;;20783047;28;20607;-63
2022/12/10 15:04:01;;;;;;;2.43;1.60;;;2.50;99.90;;;;;;20798681;28;20244;-63
2022/12/10 15:14:03;;;;;;;6.17;1.47;;;;;;;;;;20780894;28;20233;-63
2022/12/10 15:24:42;;;;;;;2.27;1.57;;;2.40;99.90;;;;;;20809960;28;20599;-63
2022/12/10 15:34:46;;;;;;;2.83;1.80;;;;;;;;;;20830725;28;20276;-63
2022/12/10 15:44:48;;;;;;;2.30;1.50;;;;;;;;;;20828718;28;20272;-63
2022/12/10 15:54:57;;;;;;;1.87;1.40;;;;;;;;;;20868193;23;20238;-68
2022/12/10 16:04:59;;;;;;;2.57;1.70;;;;;;;;;;20955263;28;20226;-68
2022/12/10 16:15:01;;;;;;;3.17;1.50;;;;;;;;;;20979349;28;20209;-67
2022/12/10 16:25:02;;;;;;;2.90;1.70;;;;;;;;;;20952848;28;20256;-68
2022/12/10 16:35:05;;;;;;;1.87;1.37;;;;;;;;;;20966851;28;20209;-69
2022/12/10 16:45:16;;;;;;;4.63;2.30;;;1.90;99.90;;;;;;20937271;28;20244;-68
2022/12/10 16:55:25;;;;;;;3.17;2.33;;;1.70;99.90;;;;;;20951655;28;20245;-68
2022/12/10 17:05:32;;;;;;;3.13;2.20;;;;;;;;;;20982018;28;20805;-67
2022/12/10 17:15:35;;;;;;;1.63;1.30;;;;;;;;;;20963656;28;20288;-68
2022/12/10 17:25:38;;;;;;;2.20;1.57;;;;;;;;;;20931055;28;20704;-70
2022/12/10 17:35:41;;;;;;;2.00;1.47;;;;;;;;;;20929674;28;20282;-68
2022/12/10 17:45:44;;;;;;;2.43;1.80;;;;;;;;;;20981015;28;20264;-70
2022/12/10 17:55:51;;;;;;;2.33;1.93;;;1.70;99.90;;;;;;20983028;28;20251;-69
2022/12/10 18:05:53;;;;;;;1.77;1.43;;;;;;;;;;20978344;28;20753;-67
2022/12/10 18:15:55;;;;;;;2.33;1.63;;;;;;;;;;20974267;28;20213;-71
2022/12/10 18:25:57;;;;;;;1.60;1.13;;;;;;;;;;20947421;28;20241;-68
2022/12/10 18:35:58;;;;;;;2.40;2.00;;;;;;;;;;20974636;28;20650;-70
2022/12/10 18:46:00;;;;;;;3.27;2.30;;;;;;;;;;20947625;28;20274;-69
2022/12/10 18:56:02;;;;;;;2.93;2.43;;;;;;;;;;20949169;28;20289;-68
2022/12/10 19:06:04;;;;;;;3.20;2.37;;;;;;;;;;20958700;28;20242;-70
2022/12/10 19:16:10;;;;;;;4.03;2.40;;;;;;;;;;20986831;28;20262;-68
2022/12/10 19:26:24;;;;;;;4.40;2.70;;;;;;;;;;20988984;28;20254;-68
2022/12/10 19:36:29;;;;;;;3.17;2.67;;;;;;;;;;20931493;28;20270;-69
2022/12/10 19:46:31;;;;;;;3.13;2.20;;;;;;;;;;20987295;28;20262;-70
2022/12/10 19:56:33;;;;;;;3.80;2.87;;;0.80;99.90;;;;;;20910494;28;20645;-70
2022/12/10 20:06:38;;;;;;;3.47;2.83;;;0.70;99.90;;;;;;20903219;28;20217;-70
2022/12/10 20:16:41;;;;;;;3.07;2.43;;;;;;;;;;20902520;28;20214;-69
2022/12/10 20:26:47;;;;;;;3.20;2.57;;;0.60;99.90;;;;;;20902272;28;20240;-68
2022/12/10 20:36:48;;;;;;;3.10;2.17;;;;;;;;;;20903493;28;20209;-68
2022/12/10 20:46:51;;;;;;;4.13;2.63;;;;;;;;;;20903472;28;20202;-68
2022/12/10 20:56:56;;;;;;;2.20;1.90;;;;;;;;;;20901050;28;20283;-68
2022/12/10 21:06:58;;;;;;;1.93;1.73;;;;;;;;;;20899068;28;20209;-68
2022/12/10 21:17:00;;;;;;;1.57;1.47;;;;;;;;;;20912199;28;20233;-68
2022/12/10 21:27:02;;;;;;;2.83;2.30;;;;;;;;;;20983472;28;20250;-68
2022/12/10 21:37:04;;;;;;;2.43;1.73;;;;;;;;;;20984888;28;20279;-69
2022/12/10 21:47:06;;;;;;;2.63;1.73;;;;;;;;;;20984944;28;20586;-70
2022/12/10 21:57:08;;;;;;;2.10;1.50;;;;;;;;;;20986200;28;20577;-68
2022/12/10 22:07:10;;;;;;;2.10;1.77;;;;;;;;;;20957667;28;20217;-67
2022/12/10 22:17:13;;;;;;;2.50;1.80;;;;;;;;;;20901665;28;20287;-67
2022/12/10 22:27:14;;;;;;;3.23;2.17;;;;;;;;;;20897471;28;20617;-67
2022/12/10 22:37:16;;;;;;;2.03;1.57;;;;;;;;;;20900848;28;20703;-69
2022/12/10 22:47:18;;;;;;;2.57;2.10;;;;;;;;;;20898895;28;20248;-70
2022/12/10 22:57:20;;;;;;;2.30;1.97;;;;;;;;;;20898888;28;20222;-67
2022/12/10 23:07:21;;;;;;;2.40;1.60;;;;;;;;;;20899325;28;20194;-69
2022/12/10 23:17:24;;;;;;;4.17;3.40;;;-0.70;99.90;;;;;;20896953;28;20226;-69
2022/12/10 23:27:26;;;;;;;2.47;1.93;;;;;;;;;;20964897;28;20247;-68
2022/12/10 23:37:30;;;;;;;2.30;2.00;;;;;;;;;;20986933;28;20676;-68
2022/12/10 23:47:31;;;;;;;3.80;2.47;;;;;;;;;;20994906;28;20201;-68
2022/12/10 23:57:33;;;;;;;2.63;2.13;;;;;;;;;;20995092;28;20263;-68
